Thevenard Island, Australia
Current Conditions -  °F | °C
As of 1:30 PM on Tuesday 21 Oct 2014 (Local Time) from YPLM Reporting Station
Clear Clear  
Wind Chill: 88°   Ceiling: Unl
Heat Index: 88°   Visibility: 6mi
Dew Point: 43°   Wind: 13mph
Humidity: 21%   Direction: 80°E
Pressure: 29.97"   Gusts: NA
Location:  21.46°S, 115.01°E
Report Text: YPLM 210530Z 08011KT CAVOK 31/06 Q1015
Loading
Personal Weather Stations






























Interactive Weather Map
Tropical Storm Tracking
New forecast layout! Learn more

10-Day Weather Forecast

Advertisements
Track Severe Weather on mobile